Airfield :
LOGIN :

Register | Disclaimer

   EN    FR    IT 

 










Legend :    VFR   Marginal VFR   IFR   Intensive IFR   Very Intensive IFR
Visi :
Ceiling :
>= 8 km
>= 3000ft
5 to 8 km
1000 to 3000 ft
1500m to 5 km
500 to 1000 ft
800 to 1500m
200 to 500 ft
< 800m
< 200 ft
Symbols :   Thunderstorms  Fog  Heavy snow  Heavy precipitations  Wind > 20 kt
SIGMETs :     Misc.  Thunderstorms  Icing  Turbulence  Mountain Waves  Volcanic Ashes







- Airport Elevation : 42 ft
- IATA code : LMO


EGQS - Lossiemouth

CURRENT METAR :
  • 250116Z 34010KT 8000 BR SCT002 OVC003 11/11 Q1023 RMK AMB

EXPIRED METARs :
  • 250050Z 34009KT 2000 -DZ BKN002 OVC003 11/11 Q1023 RMK AMB
  • 250041Z 35009KT 3000 -DZ SCT002 OVC003 11/11 Q1023 RMK AMB
  • 242350Z 35009KT 9999 OVC004 12/11 Q1023 RMK YLO2
  • 242250Z 36010KT 9999 -DZ OVC004 11/11 Q1023 RERA RMK YLO2

TAF TAF EGQS
Valid from the 25 at 00:00 until the 25 at 18:00 UTC


242232Z 2500/2518 01012KT 8000 BR OVC003
PROB40 2500/2509 1500 DZ OVC002
BECMG 2506/2509 OVC006
BECMG 2509/2512 BKN008
BECMG 2512/2515 BKN017
No reported NOTAMs for that airfield.



MET'MAP, your aeronautical weather chart ! - Copyright ORBIFLY December 2007 - Disclaimer

ORBIFLY MET'MAP TEAM :

Programming & Development : Alexandra Zaïnal
Concept & Development : Baudouin d'Aumeries
Co-Development & Prog : Marc-Olivier Méhu
Technical & hardware support : Manuel Goepfert

Contact : metmap@orbifly.com




SOURCES & CREDITS :

   NOAA